createdAt,value
2023-04-17T00:02:01.692Z,11.07
2023-04-17T00:04:28.196Z,9.68
2023-04-17T00:06:54.664Z,10.00
2023-04-17T00:09:21.212Z,10.65
2023-04-17T00:11:47.625Z,9.63
2023-04-17T00:14:13.988Z,9.13
2023-04-17T00:16:40.702Z,10.65
2023-04-17T00:19:07.165Z,9.30
2023-04-17T00:21:33.628Z,9.60
2023-04-17T00:23:59.921Z,9.25
2023-04-17T00:26:26.207Z,8.63
2023-04-17T00:28:52.534Z,8.73
2023-04-17T00:31:19.027Z,9.85
2023-04-17T00:33:46.481Z,9.00
2023-04-17T00:36:15.351Z,9.43
2023-04-17T00:38:41.766Z,8.27
2023-04-17T00:41:10.107Z,11.07
2023-04-17T00:43:36.663Z,10.32
2023-04-17T00:46:03.829Z,7.90
2023-04-17T00:48:30.272Z,10.05
2023-04-17T00:51:02.067Z,8.93
2023-04-17T00:53:31.726Z,7.90
2023-04-17T00:55:58.845Z,8.32
2023-04-17T00:58:25.479Z,11.85
2023-04-17T01:00:51.864Z,8.95
2023-04-17T01:03:18.706Z,11.73
2023-04-17T01:05:48.086Z,9.43
2023-04-17T01:08:14.373Z,8.00
2023-04-17T01:10:40.643Z,10.73
2023-04-17T01:13:07.702Z,9.57
2023-04-17T01:15:34.933Z,9.35
2023-04-17T01:18:01.840Z,8.32
2023-04-17T01:20:32.017Z,10.38
2023-04-17T01:22:58.569Z,8.13
2023-04-17T01:25:25.493Z,10.45
2023-04-17T01:27:52.113Z,7.82
2023-04-17T01:30:18.508Z,9.00
2023-04-17T01:32:44.877Z,8.73
2023-04-17T01:35:11.351Z,7.80
2023-04-17T01:37:37.695Z,8.43
2023-04-17T01:40:07.160Z,11.07
2023-04-17T01:42:36.468Z,9.00
2023-04-17T01:45:03.232Z,9.43
2023-04-17T01:47:29.652Z,8.60
2023-04-17T01:49:56.145Z,8.35
2023-04-17T01:52:22.486Z,8.90
2023-04-17T01:54:48.966Z,8.68
2023-04-17T01:57:15.402Z,11.30
2023-04-17T01:59:41.772Z,10.75
2023-04-17T02:02:08.293Z,8.90
2023-04-17T02:04:34.778Z,9.77
2023-04-17T02:07:01.177Z,10.02
2023-04-17T02:09:27.739Z,10.15
2023-04-17T02:11:54.105Z,9.20
2023-04-17T02:14:20.850Z,9.25
2023-04-17T02:16:50.221Z,9.95
2023-04-17T02:19:16.598Z,9.40
2023-04-17T02:21:42.881Z,10.15
2023-04-17T02:24:09.373Z,8.98
2023-04-17T02:26:37.107Z,9.52
2023-04-17T02:29:03.626Z,9.90
2023-04-17T02:31:30.114Z,10.10
2023-04-17T02:33:56.534Z,10.13
2023-04-17T02:36:22.885Z,9.18
2023-04-17T02:38:49.202Z,10.68
2023-04-17T02:41:15.622Z,9.18
2023-04-17T02:43:42.024Z,12.82
2023-04-17T02:46:08.511Z,8.70
2023-04-17T02:48:34.891Z,9.40
2023-04-17T02:51:01.283Z,10.48
2023-04-17T02:53:27.620Z,10.63
2023-04-17T02:55:53.966Z,9.70
2023-04-17T02:58:20.610Z,9.15
2023-04-17T03:00:47.056Z,10.45
2023-04-17T03:03:13.875Z,12.40
2023-04-17T03:05:40.453Z,10.50
2023-04-17T03:08:07.393Z,10.82
2023-04-17T03:10:33.812Z,11.70
2023-04-17T03:13:00.250Z,10.30
2023-04-17T03:15:27.214Z,12.07
2023-04-17T03:17:53.563Z,8.65
2023-04-17T03:20:19.958Z,11.73
2023-04-17T03:22:46.325Z,13.00
2023-04-17T03:25:12.709Z,10.63
2023-04-17T03:27:39.095Z,11.20
2023-04-17T03:30:06.187Z,10.23
2023-04-17T03:32:32.895Z,10.60
2023-04-17T03:34:59.491Z,12.48
2023-04-17T03:37:25.780Z,11.20
2023-04-17T03:39:52.100Z,11.30
2023-04-17T03:42:18.760Z,10.88
2023-04-17T03:44:45.380Z,11.65
2023-04-17T03:47:11.777Z,12.52
2023-04-17T03:49:38.190Z,14.45
2023-04-17T03:52:04.641Z,13.73
2023-04-17T03:54:35.280Z,15.32
2023-04-17T03:57:02.848Z,11.85
2023-04-17T03:59:30.298Z,13.30
2023-04-17T04:01:56.764Z,11.38
2023-04-17T04:04:23.356Z,12.65
2023-04-17T04:06:49.887Z,11.95
2023-04-17T04:09:16.237Z,14.02
2023-04-17T04:11:42.539Z,12.48
2023-04-17T04:14:08.863Z,15.25
2023-04-17T04:16:35.246Z,13.30
2023-04-17T04:19:01.749Z,12.43
2023-04-17T04:21:28.251Z,12.50
2023-04-17T04:23:56.208Z,13.93
2023-04-17T04:26:24.408Z,13.10
2023-04-17T04:28:50.809Z,12.63
2023-04-17T04:31:18.841Z,13.85
2023-04-17T04:33:45.992Z,13.70
2023-04-17T04:36:14.082Z,11.50
2023-04-17T04:38:40.318Z,12.23
2023-04-17T04:41:10.161Z,12.98
2023-04-17T04:43:36.807Z,10.88
2023-04-17T04:46:03.787Z,12.52
2023-04-17T04:48:30.168Z,11.13
2023-04-17T04:50:56.594Z,11.68
2023-04-17T04:53:23.118Z,11.35
2023-04-17T04:55:49.392Z,11.18
2023-04-17T04:58:16.260Z,12.35
2023-04-17T05:00:43.497Z,15.98
2023-04-17T05:03:10.178Z,10.60
2023-04-17T05:05:37.754Z,11.52
2023-04-17T05:08:06.782Z,10.05
2023-04-17T05:10:33.371Z,13.52
2023-04-17T05:12:59.740Z,11.80
2023-04-17T05:15:27.155Z,13.45
2023-04-17T05:17:53.592Z,11.52
2023-04-17T05:20:20.312Z,11.25
2023-04-17T05:22:46.732Z,13.70
2023-04-17T05:25:13.080Z,12.73
2023-04-17T05:27:39.474Z,12.68
2023-04-17T05:30:06.145Z,12.40
2023-04-17T05:32:32.675Z,14.95
2023-04-17T05:34:59.079Z,12.38
2023-04-17T05:37:25.519Z,10.98
2023-04-17T05:39:51.813Z,9.82
2023-04-17T05:42:18.163Z,11.80
2023-04-17T05:44:44.460Z,15.38
2023-04-17T05:47:10.984Z,14.20
2023-04-17T05:49:37.299Z,14.70
2023-04-17T05:52:03.821Z,12.65
2023-04-17T05:54:30.415Z,12.27
2023-04-17T05:56:56.862Z,11.05
2023-04-17T05:59:23.219Z,14.52
2023-04-17T06:01:49.529Z,11.25
2023-04-17T06:04:18.083Z,17.77
2023-04-17T06:06:45.153Z,11.88
2023-04-17T06:09:12.042Z,12.73
2023-04-17T06:11:38.701Z,13.55
2023-04-17T06:14:05.088Z,11.88
2023-04-17T06:16:31.400Z,12.10
2023-04-17T06:18:57.711Z,13.75
2023-04-17T06:21:24.327Z,11.85
2023-04-17T06:23:50.689Z,10.95
2023-04-17T06:26:17.055Z,13.10
2023-04-17T06:28:43.384Z,11.50
2023-04-17T06:31:09.764Z,11.80
2023-04-17T06:33:36.520Z,13.57
2023-04-17T06:36:02.946Z,16.15
2023-04-17T06:38:29.197Z,14.35
2023-04-17T06:40:55.499Z,14.13
2023-04-17T06:43:21.826Z,14.48
2023-04-17T06:45:48.334Z,10.88
2023-04-17T06:48:14.598Z,13.85
2023-04-17T06:50:40.948Z,13.02
2023-04-17T06:53:07.365Z,11.13
2023-04-17T06:55:33.819Z,11.95
2023-04-17T06:58:00.416Z,11.52
2023-04-17T07:00:27.015Z,9.80
2023-04-17T07:02:53.527Z,10.07
2023-04-17T07:05:20.197Z,10.18
2023-04-17T07:07:46.512Z,13.65
2023-04-17T07:10:15.599Z,11.45
2023-04-17T07:12:41.959Z,14.10
2023-04-17T07:15:08.662Z,12.75
2023-04-17T07:17:35.125Z,12.95
2023-04-17T07:20:01.454Z,14.95
2023-04-17T07:22:28.337Z,15.68
2023-04-17T07:24:54.617Z,16.20
2023-04-17T07:27:21.752Z,14.80
2023-04-17T07:29:54.301Z,17.98
2023-04-17T07:32:21.635Z,17.05
2023-04-17T07:34:48.582Z,18.05
2023-04-17T07:37:15.772Z,19.15
2023-04-17T07:39:42.310Z,17.75
2023-04-17T07:42:08.983Z,18.05
2023-04-17T07:44:35.366Z,22.80
2023-04-17T07:47:01.779Z,18.92
2023-04-17T07:49:28.090Z,19.08
2023-04-17T07:51:54.519Z,19.15
2023-04-17T07:54:20.997Z,19.75
2023-04-17T07:56:49.345Z,18.55
2023-04-17T07:59:18.693Z,21.73
2023-04-17T08:01:45.111Z,20.67
2023-04-17T08:04:11.789Z,20.85
2023-04-17T08:06:39.040Z,20.35
2023-04-17T08:09:05.475Z,21.48
2023-04-17T08:11:35.681Z,18.48
2023-04-17T08:14:06.547Z,23.35
2023-04-17T08:16:33.515Z,20.88
2023-04-17T08:18:59.991Z,21.08
2023-04-17T08:21:26.794Z,22.52
2023-04-17T08:23:53.174Z,22.45
2023-04-17T08:26:20.566Z,21.00
2023-04-17T08:28:47.120Z,19.38
2023-04-17T08:31:13.967Z,20.85
2023-04-17T08:33:40.363Z,21.20
2023-04-17T08:36:09.597Z,21.63
2023-04-17T08:38:36.458Z,20.40
2023-04-17T08:41:05.691Z,20.98
2023-04-17T08:43:34.968Z,21.55
2023-04-17T08:46:01.629Z,20.63
2023-04-17T08:48:28.421Z,23.38
2023-04-17T08:50:55.129Z,20.25
2023-04-17T08:53:21.727Z,18.23
2023-04-17T08:55:48.587Z,22.15
2023-04-17T08:58:15.579Z,19.35
2023-04-17T09:00:42.828Z,21.30
2023-04-17T09:03:11.160Z,25.13
2023-04-17T09:05:40.609Z,23.88
2023-04-17T09:08:15.016Z,23.35
2023-04-17T09:10:44.770Z,21.70
2023-04-17T09:13:14.824Z,21.42
2023-04-17T09:15:42.120Z,20.27
2023-04-17T09:18:26.811Z,20.38
2023-04-17T09:20:53.950Z,20.45
2023-04-17T09:23:22.793Z,22.88
2023-04-17T09:26:08.932Z,22.88
2023-04-17T09:28:35.767Z,19.55
2023-04-17T09:31:34.677Z,21.92
2023-04-17T09:34:05.192Z,20.80
2023-04-17T09:36:32.487Z,20.17
2023-04-17T09:39:01.048Z,21.75
2023-04-17T09:41:28.904Z,20.23
2023-04-17T09:43:56.004Z,20.55
2023-04-17T09:46:43.867Z,21.63
2023-04-17T09:49:18.840Z,21.55
2023-04-17T09:51:48.085Z,20.48
2023-04-17T09:54:17.542Z,18.88
2023-04-17T09:56:46.400Z,21.00
2023-04-17T09:59:15.265Z,20.92
2023-04-17T10:01:42.275Z,20.75
2023-04-17T10:04:09.065Z,23.48
2023-04-17T10:06:37.338Z,22.02
2023-04-17T10:09:09.208Z,21.05
2023-04-17T10:11:41.702Z,19.38
2023-04-17T10:14:37.263Z,24.15
2023-04-17T10:17:34.925Z,20.02
2023-04-17T10:20:24.445Z,20.02
2023-04-17T10:22:54.863Z,19.50
2023-04-17T10:25:24.753Z,21.52
2023-04-17T10:27:58.420Z,22.60
2023-04-17T10:30:26.653Z,21.83
2023-04-17T10:33:11.624Z,21.23
2023-04-17T10:35:39.767Z,20.83
2023-04-17T10:38:10.565Z,20.33
2023-04-17T10:40:37.951Z,19.80
2023-04-17T10:43:28.740Z,21.45
2023-04-17T10:46:11.567Z,19.33
2023-04-17T10:48:41.691Z,19.80
2023-04-17T10:51:27.718Z,20.40
2023-04-17T10:53:58.156Z,19.52
2023-04-17T10:56:41.188Z,18.98
2023-04-17T10:59:08.452Z,20.48
2023-04-17T11:01:37.900Z,21.33
2023-04-17T11:04:04.541Z,21.65
2023-04-17T11:06:31.625Z,18.92
2023-04-17T11:08:59.017Z,19.55
2023-04-17T11:11:35.253Z,19.45
2023-04-17T11:14:13.504Z,19.50
2023-04-17T11:16:42.051Z,20.02
2023-04-17T11:19:13.607Z,19.23
2023-04-17T11:21:42.224Z,17.73
2023-04-17T11:24:08.607Z,18.15
2023-04-17T11:26:44.502Z,19.35
2023-04-17T11:29:15.111Z,17.45
2023-04-17T11:31:41.490Z,18.40
2023-04-17T11:34:09.615Z,20.58
2023-04-17T11:36:36.006Z,18.00
2023-04-17T11:39:02.331Z,16.35
2023-04-17T11:41:38.830Z,18.92
2023-04-17T11:44:08.930Z,20.88
2023-04-17T11:46:35.966Z,20.95
2023-04-17T11:49:05.741Z,17.20
2023-04-17T11:51:32.633Z,18.85
2023-04-17T11:53:59.787Z,18.88
2023-04-17T11:56:28.476Z,19.77
2023-04-17T11:58:55.967Z,20.00
2023-04-17T12:01:26.115Z,18.10
2023-04-17T12:03:53.421Z,18.98
2023-04-17T12:06:19.925Z,18.70
2023-04-17T12:08:53.521Z,16.10
2023-04-17T12:11:26.076Z,15.85
2023-04-17T12:13:53.192Z,15.65
2023-04-17T12:16:19.715Z,16.80
2023-04-17T12:18:46.396Z,16.25
2023-04-17T12:21:13.389Z,18.95
2023-04-17T12:23:40.465Z,17.10
2023-04-17T12:26:07.298Z,16.95
2023-04-17T12:28:33.719Z,19.65
2023-04-17T12:31:00.053Z,18.13
2023-04-17T12:33:27.594Z,16.13
2023-04-17T12:35:54.526Z,17.33
2023-04-17T12:38:20.986Z,17.92
2023-04-17T12:40:47.481Z,20.42
2023-04-17T12:43:13.836Z,16.17
2023-04-17T12:45:42.509Z,16.60
2023-04-17T12:48:09.023Z,16.98
2023-04-17T12:50:42.379Z,13.93
2023-04-17T12:53:09.817Z,15.50
2023-04-17T12:55:38.720Z,17.25
2023-04-17T12:58:06.394Z,17.05
2023-04-17T13:00:32.965Z,13.23
2023-04-17T13:02:59.806Z,13.48
2023-04-17T13:05:27.080Z,15.30
2023-04-17T13:07:53.520Z,16.55
2023-04-17T13:10:19.821Z,14.88
2023-04-17T13:12:46.247Z,15.88
2023-04-17T13:15:15.585Z,13.23
2023-04-17T13:17:43.206Z,13.30
2023-04-17T13:20:10.115Z,13.27
2023-04-17T13:22:36.626Z,14.98
2023-04-17T13:25:04.045Z,11.45
2023-04-17T13:27:30.563Z,13.93
2023-04-17T13:29:57.016Z,14.52
2023-04-17T13:32:23.489Z,12.82
2023-04-17T13:34:49.813Z,13.00
2023-04-17T13:37:16.227Z,12.15
2023-04-17T13:39:42.662Z,11.95
2023-04-17T13:42:09.123Z,12.25
2023-04-17T13:44:35.735Z,13.57
2023-04-17T13:47:03.604Z,13.82
2023-04-17T13:49:30.518Z,12.63
2023-04-17T13:51:56.875Z,13.95
2023-04-17T13:54:23.266Z,17.48
2023-04-17T13:56:49.546Z,10.20
2023-04-17T13:59:15.966Z,15.77
2023-04-17T14:01:42.264Z,15.32
2023-04-17T14:04:09.565Z,14.30
2023-04-17T14:06:36.245Z,12.88
2023-04-17T14:09:03.570Z,11.50
2023-04-17T14:11:29.985Z,16.30
2023-04-17T14:13:56.362Z,14.15
2023-04-17T14:16:22.841Z,14.15
2023-04-17T14:18:49.594Z,11.20
2023-04-17T14:21:16.969Z,14.23
2023-04-17T14:23:43.720Z,12.45
2023-04-17T14:26:10.404Z,10.45
2023-04-17T14:28:37.081Z,12.68
2023-04-17T14:31:03.647Z,13.07
2023-04-17T14:33:30.151Z,11.95
2023-04-17T14:35:56.854Z,12.55
2023-04-17T14:38:23.670Z,13.05
2023-04-17T14:40:50.335Z,9.80
2023-04-17T14:43:16.656Z,12.55
2023-04-17T14:45:43.486Z,13.75
2023-04-17T14:48:10.248Z,13.23
2023-04-17T14:50:36.764Z,10.00
2023-04-17T14:53:04.479Z,12.10
2023-04-17T14:55:31.299Z,10.73
2023-04-17T14:57:57.638Z,11.02
2023-04-17T15:00:23.942Z,11.07
2023-04-17T15:02:50.448Z,13.23
2023-04-17T15:05:20.896Z,9.02
2023-04-17T15:07:47.629Z,11.45
2023-04-17T15:10:14.309Z,8.85
2023-04-17T15:12:40.913Z,8.88
2023-04-17T15:15:07.965Z,14.52
2023-04-17T15:17:35.811Z,13.15
2023-04-17T15:20:02.156Z,11.52
2023-04-17T15:22:28.516Z,9.00
2023-04-17T15:24:54.852Z,13.52
2023-04-17T15:27:21.172Z,13.32
2023-04-17T15:29:47.562Z,10.00
2023-04-17T15:32:14.659Z,11.43
2023-04-17T15:34:43.518Z,9.13
2023-04-17T15:37:10.754Z,10.38
2023-04-17T15:42:22.470Z,9.10
2023-04-17T15:44:49.029Z,11.23
2023-04-17T15:47:15.470Z,12.35
2023-04-17T15:49:43.228Z,8.02
2023-04-17T15:52:10.306Z,8.48
2023-04-17T15:54:36.678Z,8.65
2023-04-17T15:57:03.045Z,8.00
2023-04-17T15:59:29.478Z,7.95
2023-04-17T16:01:56.211Z,10.13
2023-04-17T16:04:23.717Z,8.15
2023-04-17T16:06:50.470Z,8.65
2023-04-17T16:09:24.096Z,9.48
2023-04-17T16:11:50.779Z,9.98
2023-04-17T16:14:17.808Z,8.65
2023-04-17T16:16:45.681Z,10.15
2023-04-17T16:19:12.327Z,7.70
2023-04-17T16:21:38.865Z,9.68
2023-04-17T16:24:05.383Z,7.65
2023-04-17T16:26:32.376Z,8.82
2023-04-17T16:28:59.467Z,8.85
2023-04-17T16:31:26.193Z,9.48
2023-04-17T16:33:52.984Z,10.52
2023-04-17T16:36:19.307Z,8.50
2023-04-17T16:38:46.136Z,7.40
2023-04-17T16:41:13.527Z,7.47
2023-04-17T16:43:41.882Z,11.43
2023-04-17T16:46:20.550Z,10.30
2023-04-17T16:48:49.181Z,8.80
2023-04-17T16:51:15.647Z,7.53
2023-04-17T16:53:43.596Z,9.15
2023-04-17T16:56:10.850Z,12.82
2023-04-17T16:58:37.293Z,7.88
2023-04-17T17:01:03.860Z,6.68
2023-04-17T17:03:30.323Z,6.80
2023-04-17T17:05:57.469Z,6.82
2023-04-17T17:08:23.797Z,15.50
2023-04-17T17:10:50.658Z,8.93
2023-04-17T17:13:17.423Z,8.25
2023-04-17T17:15:43.902Z,9.98
2023-04-17T17:18:10.666Z,10.02
2023-04-17T17:20:37.098Z,9.75
2023-04-17T17:23:03.600Z,9.90
2023-04-17T17:25:29.917Z,11.27
2023-04-17T17:27:56.472Z,13.23
2023-04-17T17:30:22.798Z,11.63
2023-04-17T17:32:49.192Z,12.27
2023-04-17T17:35:15.794Z,13.93
2023-04-17T17:37:42.417Z,14.82
2023-04-17T17:40:09.077Z,17.13
2023-04-17T17:42:35.474Z,15.40
2023-04-17T17:45:01.807Z,10.60
2023-04-17T17:47:28.186Z,12.50
2023-04-17T17:49:54.630Z,13.10
2023-04-17T17:52:21.191Z,14.30
2023-04-17T17:54:47.534Z,13.75
2023-04-17T17:57:13.858Z,12.73
2023-04-17T17:59:40.340Z,13.68
2023-04-17T18:02:06.888Z,11.63
2023-04-17T18:04:33.508Z,15.15
2023-04-17T18:06:59.855Z,10.63
2023-04-17T18:09:26.539Z,12.32
2023-04-17T18:11:53.081Z,9.45
2023-04-17T18:14:19.424Z,13.88
2023-04-17T18:16:45.777Z,14.70
2023-04-17T18:19:12.282Z,13.23
2023-04-17T18:21:38.677Z,12.80
2023-04-17T18:24:05.348Z,9.77
2023-04-17T18:26:31.664Z,11.82
2023-04-17T18:28:57.992Z,15.00
2023-04-17T18:31:26.052Z,13.20
2023-04-17T18:33:52.691Z,11.50
2023-04-17T18:36:18.958Z,9.98
2023-04-17T18:38:45.416Z,8.23
2023-04-17T18:41:11.843Z,7.78
2023-04-17T18:43:38.415Z,7.90
2023-04-17T18:46:07.501Z,9.23
2023-04-17T18:48:34.487Z,10.07
2023-04-17T18:51:14.838Z,11.90
2023-04-17T18:53:42.496Z,8.40
2023-04-17T18:56:10.724Z,9.25
2023-04-17T18:58:40.063Z,9.98
2023-04-17T19:01:08.564Z,12.55
2023-04-17T19:03:34.998Z,10.93
2023-04-17T19:06:02.504Z,8.52
2023-04-17T19:08:28.926Z,8.13
2023-04-17T19:10:55.360Z,9.93
2023-04-17T19:13:21.815Z,11.10
2023-04-17T19:15:48.194Z,8.77
2023-04-17T19:18:14.517Z,7.97
2023-04-17T19:20:42.540Z,8.60
2023-04-17T19:23:10.400Z,8.18
2023-04-17T19:25:42.415Z,9.32
2023-04-17T19:28:11.169Z,9.35
2023-04-17T19:30:41.088Z,8.00
2023-04-17T19:33:07.841Z,8.43
2023-04-17T19:35:34.133Z,9.23
2023-04-17T19:38:00.644Z,9.50
2023-04-17T19:40:27.354Z,9.63
2023-04-17T19:42:53.731Z,7.60
2023-04-17T19:45:20.948Z,9.00
2023-04-17T19:47:57.090Z,8.90
2023-04-17T19:52:51.073Z,8.57
2023-04-17T19:55:17.647Z,7.85
2023-04-17T19:57:45.659Z,8.75
2023-04-17T20:00:15.653Z,7.85
2023-04-17T20:02:42.253Z,9.13
2023-04-17T20:05:09.209Z,10.32
2023-04-17T20:07:35.560Z,9.50
2023-04-17T20:10:02.292Z,9.02
2023-04-17T20:12:28.647Z,10.50
2023-04-17T20:14:55.161Z,10.38
2023-04-17T20:17:22.748Z,11.27
2023-04-17T20:19:49.248Z,11.30
2023-04-17T20:22:15.616Z,10.55
2023-04-17T20:24:41.973Z,8.82
2023-04-17T20:27:08.782Z,9.15
2023-04-17T20:29:35.333Z,9.35
2023-04-17T20:32:03.740Z,11.05
2023-04-17T20:34:35.011Z,11.20
2023-04-17T20:37:01.951Z,8.88
2023-04-17T20:39:28.638Z,9.65
2023-04-17T20:41:55.028Z,8.95
2023-04-17T20:44:22.074Z,10.43
2023-04-17T20:46:48.537Z,9.95
2023-04-17T20:49:14.981Z,10.10
2023-04-17T20:51:41.288Z,9.25
2023-04-17T20:54:07.608Z,10.57
2023-04-17T20:56:34.040Z,8.30
2023-04-17T20:59:00.339Z,8.23
2023-04-17T21:01:26.776Z,10.60
2023-04-17T21:03:53.349Z,9.02
2023-04-17T21:06:22.227Z,10.05
2023-04-17T21:08:48.704Z,8.38
2023-04-17T21:11:15.000Z,9.68
2023-04-17T21:13:41.393Z,9.85
2023-04-17T21:16:09.942Z,9.15
2023-04-17T21:18:36.729Z,8.00
2023-04-17T21:21:03.093Z,8.10
2023-04-17T21:23:29.392Z,7.68
2023-04-17T21:25:55.884Z,6.90
2023-04-17T21:28:22.308Z,8.05
2023-04-17T21:30:48.713Z,8.77
2023-04-17T21:33:15.093Z,9.52
2023-04-17T21:35:41.394Z,8.68
2023-04-17T21:38:07.705Z,7.45
2023-04-17T21:40:36.626Z,8.48
2023-04-17T21:43:04.473Z,8.75
2023-04-17T21:45:31.391Z,8.80
2023-04-17T21:47:57.859Z,8.52
2023-04-17T21:50:24.269Z,8.02
2023-04-17T21:52:50.564Z,11.80
2023-04-17T21:55:17.709Z,7.88
2023-04-17T21:57:44.844Z,7.38
2023-04-17T22:00:12.575Z,8.82
2023-04-17T22:02:39.022Z,6.72
2023-04-17T22:05:05.607Z,7.15
2023-04-17T22:07:38.129Z,6.28
2023-04-17T22:10:10.400Z,7.05
2023-04-17T22:12:36.800Z,7.22
2023-04-17T22:15:03.482Z,6.93
2023-04-17T22:17:29.757Z,7.32
2023-04-17T22:20:14.787Z,7.10
2023-04-17T22:23:00.065Z,7.85
2023-04-17T22:25:26.423Z,7.97
2023-04-17T22:28:30.707Z,6.25
2023-04-17T22:31:16.230Z,8.75
2023-04-17T22:33:43.089Z,7.50
2023-04-17T22:36:28.233Z,7.43
2023-04-17T22:38:54.615Z,6.93
2023-04-17T22:41:20.947Z,6.15
2023-04-17T22:44:09.602Z,6.13
2023-04-17T22:46:54.650Z,6.60
2023-04-17T22:49:20.977Z,5.80
2023-04-17T22:51:47.878Z,6.30
2023-04-17T22:54:33.355Z,6.05
2023-04-17T22:57:18.867Z,5.82
2023-04-17T23:00:22.574Z,6.88
2023-04-17T23:03:07.735Z,8.27
2023-04-17T23:06:11.657Z,6.05
2023-04-17T23:08:38.013Z,5.72
2023-04-17T23:11:05.931Z,6.85
2023-04-17T23:13:32.247Z,6.18
2023-04-17T23:15:58.609Z,6.80
2023-04-17T23:18:24.998Z,6.03
2023-04-17T23:20:51.921Z,6.88
2023-04-17T23:23:18.999Z,6.13
2023-04-17T23:25:46.128Z,6.13
2023-04-17T23:28:12.512Z,6.18
2023-04-17T23:30:38.806Z,8.98
2023-04-17T23:33:05.147Z,7.25
2023-04-17T23:35:31.499Z,5.47
2023-04-17T23:37:57.834Z,6.00
2023-04-17T23:40:24.925Z,7.05
2023-04-17T23:42:53.139Z,5.55
2023-04-17T23:45:19.486Z,6.05
2023-04-17T23:47:46.020Z,6.55
2023-04-17T23:50:12.418Z,5.05
2023-04-17T23:52:38.789Z,6.35
2023-04-17T23:55:07.881Z,6.93
2023-04-17T23:57:35.481Z,5.75
